Time;durP1;ratioP1;P1;durP2;ratioP2;P2;SDS_P1;SDS_P2;PMS_P1;PMS_P2;Temp;Humidity;BMP_temperature;BMP_pressure;BME280_temperature;BME280_humidity;BME280_pressure;Samples;Min_cycle;Max_cycle;Signal;HPM_P1;HPM_P2
2024/02/12 00:01:29;;;;;;;1.7;1.4;;;;;;;;;;;;;
2024/02/12 00:03:50;;;;;;;1.6;1.3;;;;;;;;;;;;;
2024/02/12 00:06:17;;;;;;;1.6;1.3;;;;;;;;;;;;;
2024/02/12 00:08:40;;;;;;;1.3;1.2;;;;;;;;;;;;;
2024/02/12 00:11:06;;;;;;;2.6;1.5;;;;;;;;;;;;;
2024/02/12 00:13:31;;;;;;;2.8;1.1;;;;;;;;;;;;;
2024/02/12 00:15:56;;;;;;;1.4;1.3;;;;;;;;;;;;;
2024/02/12 00:18:23;;;;;;;2;1.8;;;;;;;;;;;;;
2024/02/12 00:20:46;;;;;;;1.7;1.6;;;;;;;;;;;;;
2024/02/12 00:23:11;;;;;;;3.2;2.1;;;;;;;;;;;;;
2024/02/12 00:25:36;;;;;;;1.6;1.5;;;;;;;;;;;;;
2024/02/12 00:28:01;;;;;;;1.8;1.3;;;;;;;;;;;;;
2024/02/12 00:30:26;;;;;;;1.5;1.2;;;;;;;;;;;;;
2024/02/12 00:32:54;;;;;;;3;1.9;;;;;;;;;;;;;
2024/02/12 00:35:17;;;;;;;3.9;2.2;;;;;;;;;;;;;
2024/02/12 00:37:42;;;;;;;3.3;2.2;;;;;;;;;;;;;
2024/02/12 00:40:10;;;;;;;3.7;2.6;;;;;;;;;;;;;
2024/02/12 00:42:33;;;;;;;4.3;2.5;;;;;;;;;;;;;
2024/02/12 00:44:57;;;;;;;2.8;2;;;;;;;;;;;;;
2024/02/12 00:47:25;;;;;;;2.5;2.2;;;;;;;;;;;;;
2024/02/12 00:49:48;;;;;;;2.3;2.1;;;;;;;;;;;;;
2024/02/12 00:52:14;;;;;;;2.4;2.2;;;;;;;;;;;;;
2024/02/12 00:54:40;;;;;;;2.1;1.7;;;;;;;;;;;;;
2024/02/12 00:57:03;;;;;;;1.6;1.5;;;;;;;;;;;;;
2024/02/12 00:59:28;;;;;;;2.1;1.3;;;;;;;;;;;;;
2024/02/12 01:01:53;;;;;;;1.8;1.3;;;;;;;;;;;;;
2024/02/12 01:04:19;;;;;;;1.5;1.2;;;;;;;;;;;;;
2024/02/12 01:06:44;;;;;;;1.1;1.1;;;;;;;;;;;;;
2024/02/12 01:09:11;;;;;;;1.2;1.1;;;;;;;;;;;;;
2024/02/12 01:11:34;;;;;;;1.3;1.1;;;;;;;;;;;;;
2024/02/12 01:13:58;;;;;;;1.1;1;;;;;;;;;;;;;
2024/02/12 01:16:24;;;;;;;1.4;1;;;;;;;;;;;;;
2024/02/12 01:18:50;;;;;;;1.8;1.2;;;;;;;;;;;;;
2024/02/12 01:21:14;;;;;;;1;0.9;;;;;;;;;;;;;
2024/02/12 01:23:39;;;;;;;1.4;1.3;;;;;;;;;;;;;
2024/02/12 01:26:04;;;;;;;2;1.6;;;;;;;;;;;;;
2024/02/12 01:28:31;;;;;;;1.7;1.3;;;;;;;;;;;;;
2024/02/12 01:30:54;;;;;;;1.8;1.2;;;;;;;;;;;;;
2024/02/12 01:33:20;;;;;;;1.9;1.1;;;;;;;;;;;;;
2024/02/12 01:35:46;;;;;;;2.7;1.3;;;;;;;;;;;;;
2024/02/12 01:38:11;;;;;;;1.5;1.2;;;;;;;;;;;;;
2024/02/12 01:40:34;;;;;;;1.5;1.4;;;;;;;;;;;;;
2024/02/12 01:43:00;;;;;;;1.2;1.1;;;;;;;;;;;;;
2024/02/12 01:45:26;;;;;;;1.2;1.1;;;;;;;;;;;;;
2024/02/12 01:47:57;;;;;;;1.6;1.4;;;;;;;;;;;;;
2024/02/12 01:50:15;;;;;;;2.3;1.1;;;;;;;;;;;;;
2024/02/12 01:52:40;;;;;;;1.3;1.2;;;;;;;;;;;;;
2024/02/12 01:55:07;;;;;;;1.3;1.2;;;;;;;;;;;;;
2024/02/12 01:57:30;;;;;;;1.2;1.1;;;;;;;;;;;;;
2024/02/12 01:59:57;;;;;;;1.2;1.1;;;;;;;;;;;;;
2024/02/12 02:02:21;;;;;;;1.9;1.7;;;;;;;;;;;;;
2024/02/12 02:04:46;;;;;;;1.6;1.5;;;;;;;;;;;;;
2024/02/12 02:07:11;;;;;;;1.6;1.1;;;;;;;;;;;;;
2024/02/12 02:09:36;;;;;;;1.5;1.3;;;;;;;;;;;;;
2024/02/12 02:12:01;;;;;;;1.6;1.2;;;;;;;;;;;;;
2024/02/12 02:14:26;;;;;;;1.3;1.2;;;;;;;;;;;;;
2024/02/12 02:16:52;;;;;;;1.2;1.1;;;;;;;;;;;;;
2024/02/12 02:19:17;;;;;;;1.4;1.3;;;;;;;;;;;;;
2024/02/12 02:21:42;;;;;;;1.3;1.2;;;;;;;;;;;;;
2024/02/12 02:24:07;;;;;;;2.4;1.2;;;;;;;;;;;;;
2024/02/12 02:26:34;;;;;;;1;1;;;;;;;;;;;;;
2024/02/12 02:28:58;;;;;;;1.1;1;;;;;;;;;;;;;
2024/02/12 02:31:22;;;;;;;1.2;1.1;;;;;;;;;;;;;
2024/02/12 02:33:47;;;;;;;1.8;1.4;;;;;;;;;;;;;
2024/02/12 02:36:13;;;;;;;1.6;1.5;;;;;;;;;;;;;
2024/02/12 02:38:38;;;;;;;1.5;1.4;;;;;;;;;;;;;
2024/02/12 02:41:03;;;;;;;2.2;1.5;;;;;;;;;;;;;
2024/02/12 02:43:28;;;;;;;2.4;1.7;;;;;;;;;;;;;
2024/02/12 02:45:54;;;;;;;1.5;1.4;;;;;;;;;;;;;
2024/02/12 02:48:19;;;;;;;1.5;1.4;;;;;;;;;;;;;
2024/02/12 02:50:45;;;;;;;2.4;1.4;;;;;;;;;;;;;
2024/02/12 02:53:10;;;;;;;4.4;1.4;;;;;;;;;;;;;
2024/02/12 02:55:34;;;;;;;1.7;1.6;;;;;;;;;;;;;
2024/02/12 02:58:01;;;;;;;1.5;1.4;;;;;;;;;;;;;
2024/02/12 03:00:26;;;;;;;1.6;1.5;;;;;;;;;;;;;
2024/02/12 03:02:50;;;;;;;1.5;1.2;;;;;;;;;;;;;
2024/02/12 03:05:15;;;;;;;2;1.2;;;;;;;;;;;;;
2024/02/12 03:07:40;;;;;;;1.5;1.3;;;;;;;;;;;;;
2024/02/12 03:10:07;;;;;;;1.9;1.5;;;;;;;;;;;;;
2024/02/12 03:12:31;;;;;;;1.5;1.4;;;;;;;;;;;;;
2024/02/12 03:14:55;;;;;;;1.9;1.7;;;;;;;;;;;;;
2024/02/12 03:17:20;;;;;;;1.4;1.3;;;;;;;;;;;;;
2024/02/12 03:19:47;;;;;;;2.6;1.4;;;;;;;;;;;;;
2024/02/12 03:22:11;;;;;;;2.1;1.9;;;;;;;;;;;;;
2024/02/12 03:24:36;;;;;;;1.4;1.3;;;;;;;;;;;;;
2024/02/12 03:27:01;;;;;;;2;1.3;;;;;;;;;;;;;
2024/02/12 03:29:27;;;;;;;1.3;1.1;;;;;;;;;;;;;
2024/02/12 03:31:51;;;;;;;1.6;1.1;;;;;;;;;;;;;
2024/02/12 03:34:16;;;;;;;1.1;1.1;;;;;;;;;;;;;
2024/02/12 03:36:41;;;;;;;1.2;1.1;;;;;;;;;;;;;
2024/02/12 03:39:08;;;;;;;3.2;1.5;;;;;;;;;;;;;
2024/02/12 03:41:32;;;;;;;3;1.4;;;;;;;;;;;;;
2024/02/12 03:43:58;;;;;;;1.8;1.6;;;;;;;;;;;;;
2024/02/12 03:46:28;;;;;;;1.9;1.6;;;;;;;;;;;;;
2024/02/12 04:02:28;;;;;;;1.5;1.3;;;;;;;4.26;87.5752;922.995;;;;
2024/02/12 04:04:53;;;;;;;3.1;1.5;;;;;;;4.21;87.92383;923.0797;;;;
2024/02/12 04:07:18;;;;;;;3.6;1.7;;;;;;;4.3;87.55957;923.0978;;;;
2024/02/12 04:09:43;;;;;;;2.8;1.4;;;;;;;4.23;87.6123;923.1035;;;;
2024/02/12 04:12:11;;;;;;;2.3;1.2;;;;;;;4.23;87.44531;923.1216;;;;
2024/02/12 04:14:33;;;;;;;2.1;1.5;;;;;;;4.23;87.49121;923.1721;;;;
2024/02/12 04:16:58;;;;;;;2.8;1.7;;;;;;;4.24;87.64844;923.2249;;;;
2024/02/12 04:19:24;;;;;;;3.2;1.6;;;;;;;4.34;87.24121;923.2249;;;;
2024/02/12 04:21:49;;;;;;;1.6;1.4;;;;;;;4.27;87.33887;923.307;;;;
2024/02/12 04:24:14;;;;;;;67.1;30.2;;;;;;;4.22;87.68945;923.3035;;;;
2024/02/12 04:26:50;;;;;;;24.7;12.7;;;;;;;4.17;88.07227;923.3808;;;;
2024/02/12 04:29:15;;;;;;;3.3;2.6;;;;;;;4.12;88.13965;923.3591;;;;
2024/02/12 04:31:41;;;;;;;2;1.8;;;;;;;4.1;88.36133;923.3801;;;;
2024/02/12 04:34:07;;;;;;;2.2;2;;;;;;;4.1;88.62109;923.3297;;;;
2024/02/12 04:36:31;;;;;;;2;1.8;;;;;;;4.25;88.42676;923.3345;;;;
2024/02/12 04:38:56;;;;;;;1.7;1.6;;;;;;;4.26;88.6875;923.3834;;;;
2024/02/12 04:41:21;;;;;;;1.8;1.4;;;;;;;4.21;88.83496;923.3979;;;;
2024/02/12 04:43:47;;;;;;;2.2;1.9;;;;;;;4.33;88.43262;923.4124;;;;
2024/02/12 04:46:11;;;;;;;1.6;1.5;;;;;;;4.34;88.01758;923.3887;;;;
2024/02/12 04:48:37;;;;;;;1.5;1.4;;;;;;;4.24;88.08691;923.4423;;;;
2024/02/12 04:51:02;;;;;;;1.6;1.5;;;;;;;4.25;88.43945;923.5031;;;;
2024/02/12 04:53:27;;;;;;;1.6;1.2;;;;;;;4.27;88.68945;923.5269;;;;
2024/02/12 04:55:52;;;;;;;1.6;1.5;;;;;;;4.31;88.49609;923.5847;;;;
2024/02/12 04:58:17;;;;;;;1.4;1.3;;;;;;;4.34;88.72656;923.6448;;;;
2024/02/12 05:00:42;;;;;;;2.8;1.3;;;;;;;4.46;88.30273;923.6533;;;;
2024/02/12 05:03:07;;;;;;;1.4;1.3;;;;;;;4.47;88.63086;923.6667;;;;
2024/02/12 05:05:32;;;;;;;1.3;1.2;;;;;;;4.45;88.52441;923.78;;;;
2024/02/12 05:07:57;;;;;;;1.6;1.4;;;;;;;4.43;88.83594;923.7902;;;;
2024/02/12 05:10:23;;;;;;;2.2;1.9;;;;;;;4.47;89.05859;923.9078;;;;
2024/02/12 05:12:50;;;;;;;2.7;1.8;;;;;;;4.47;89.27246;923.9575;;;;
2024/02/12 05:15:14;;;;;;;2.7;1.9;;;;;;;4.54;89.13965;924.0353;;;;
2024/02/12 05:17:52;;;;;;;1.7;1.6;;;;;;;4.59;88.92578;924.0563;;;;
2024/02/12 05:22:35;;;;;;;2.5;1.9;;;;;;;4.45;89.93066;924.1;;;;
2024/02/12 05:24:55;;;;;;;1.5;1.4;;;;;;;4.53;89.58789;924.0936;;;;
2024/02/12 05:27:20;;;;;;;2.1;1.4;;;;;;;4.49;90.07422;924.1633;;;;
2024/02/12 05:29:45;;;;;;;1.9;1.5;;;;;;;4.45;90.45996;924.1819;;;;
2024/02/12 05:32:10;;;;;;;26.7;23.9;;;;;;;4.43;90.1748;924.0588;;;;
2024/02/12 05:34:35;;;;;;;34.1;30.6;;;;;;;4.43;90.50293;924.2402;;;;
2024/02/12 05:37:00;;;;;;;16.3;14.7;;;;;;;4.5;90.93164;924.247;;;;
2024/02/12 05:39:25;;;;;;;7.3;6.5;;;;;;;4.54;91.15723;924.2773;;;;
2024/02/12 05:41:51;;;;;;;7.1;4.7;;;;;;;4.51;91.3291;924.1667;;;;
2024/02/12 05:44:16;;;;;;;4.9;3.4;;;;;;;4.62;90.82324;924.194;;;;
2024/02/12 05:46:41;;;;;;;4;3.2;;;;;;;4.69;91.10938;924.2143;;;;
2024/02/12 05:49:06;;;;;;;3.5;3.1;;;;;;;4.7;90.95313;924.1939;;;;
2024/02/12 05:51:31;;;;;;;5.3;3.8;;;;;;;4.76;90.66211;924.2006;;;;
2024/02/12 05:53:56;;;;;;;4.1;3.1;;;;;;;4.77;90.54004;924.2267;;;;
2024/02/12 05:56:21;;;;;;;5.6;3.1;;;;;;;4.75;90.64941;924.2731;;;;
2024/02/12 05:58:46;;;;;;;5.1;3.4;;;;;;;4.66;91.03516;924.2676;;;;
2024/02/12 06:01:11;;;;;;;3.9;2.8;;;;;;;4.78;90.49512;924.274;;;;
2024/02/12 06:03:37;;;;;;;2.9;2.5;;;;;;;4.78;90.51758;924.2947;;;;
2024/02/12 06:06:02;;;;;;;3.1;2.3;;;;;;;4.78;90.66406;924.308;;;;
2024/02/12 06:10:25;;;;;;;2.3;2;;;;;;;4.74;91.03027;924.2936;;;;
2024/02/12 06:12:50;;;;;;;2.3;2.1;;;;;;;4.8;90.81641;924.3042;;;;
2024/02/12 06:15:16;;;;;;;2.6;2;;;;;;;4.87;90.42676;924.3769;;;;
2024/02/12 06:17:41;;;;;;;1.8;1.7;;;;;;;4.78;90.4502;924.3782;;;;
2024/02/12 06:20:06;;;;;;;1.9;1.8;;;;;;;4.75;90.31152;924.3906;;;;
2024/02/12 06:22:31;;;;;;;2.4;1.7;;;;;;;4.76;90.61523;924.2961;;;;
2024/02/12 06:24:56;;;;;;;2.6;1.9;;;;;;;4.9;90.02832;924.4174;;;;
2024/02/12 06:27:22;;;;;;;2.5;2.1;;;;;;;4.95;89.76758;924.4177;;;;
2024/02/12 06:29:46;;;;;;;2.8;2.3;;;;;;;4.78;90.23633;924.4673;;;;
2024/02/12 06:32:14;;;;;;;12.8;7.4;;;;;;;4.93;89.72754;924.4995;;;;
2024/02/12 06:34:37;;;;;;;10.9;6.2;;;;;;;4.87;89.60547;924.5496;;;;
2024/02/12 06:37:03;;;;;;;8.5;5;;;;;;;4.59;90.8291;924.6467;;;;
2024/02/12 06:39:28;;;;;;;7.1;4.3;;;;;;;4.53;91.0625;924.6099;;;;
2024/02/12 06:41:52;;;;;;;5.4;3.9;;;;;;;4.57;91.29785;924.6283;;;;
2024/02/12 06:44:19;;;;;;;3.7;2.6;;;;;;;4.57;91.79297;924.6488;;;;
2024/02/12 06:46:43;;;;;;;3.5;2.7;;;;;;;4.52;92.66016;924.6649;;;;
2024/02/12 06:49:07;;;;;;;3.4;2.8;;;;;;;4.65;92.41699;924.6247;;;;
2024/02/12 06:51:32;;;;;;;4.6;3.2;;;;;;;4.68;92.25391;924.7234;;;;
2024/02/12 06:53:58;;;;;;;4.5;3.5;;;;;;;4.76;92.11523;924.829;;;;
2024/02/12 06:56:23;;;;;;;5.4;3.8;;;;;;;4.76;92.44238;924.9063;;;;
2024/02/12 06:58:48;;;;;;;5.7;4.2;;;;;;;4.87;92.16113;924.8658;;;;
2024/02/12 07:01:14;;;;;;;5.2;3.9;;;;;;;4.97;91.31543;925.0007;;;;
2024/02/12 07:03:38;;;;;;;5.6;4.5;;;;;;;4.97;91.31738;924.9423;;;;
2024/02/12 07:06:03;;;;;;;10.6;7.9;;;;;;;4.97;91.73242;925.0306;;;;
2024/02/12 07:08:28;;;;;;;5.2;4;;;;;;;4.9;91.80859;925.0325;;;;
2024/02/12 07:10:54;;;;;;;4.4;2.6;;;;;;;4.96;91.66309;925.1055;;;;
2024/02/12 07:13:21;;;;;;;5.5;3.6;;;;;;;4.98;91.58789;925.0859;;;;
2024/02/12 07:15:45;;;;;;;17.4;11.8;;;;;;;4.91;91.98926;925.0396;;;;
2024/02/12 07:18:10;;;;;;;11.5;8.8;;;;;;;4.94;92.12988;925.1282;;;;
2024/02/12 07:20:36;;;;;;;10;9;;;;;;;5.01;91.71973;925.0912;;;;
2024/02/12 07:23:01;;;;;;;4.3;3.8;;;;;;;4.88;92.20898;925.0094;;;;
2024/02/12 07:25:26;;;;;;;4.9;3.1;;;;;;;4.84;92.27734;925.0075;;;;
2024/02/12 07:28:34;;;;;;;3.3;2.9;;;;;;;4.86;92.88086;925.0471;;;;
2024/02/12 07:31:00;;;;;;;4.1;2.9;;;;;;;4.97;92.11328;925.0236;;;;
2024/02/12 07:33:25;;;;;;;5.3;3.1;;;;;;;4.86;92.43945;925.0115;;;;
2024/02/12 07:35:52;;;;;;;5.6;3.8;;;;;;;4.95;92.30273;925.0416;;;;
2024/02/12 07:38:15;;;;;;;5.7;4.7;;;;;;;5.02;92.24023;925.0717;;;;
2024/02/12 07:40:40;;;;;;;6.2;4.4;;;;;;;5.06;92.33789;925.1295;;;;
2024/02/12 07:43:05;;;;;;;6;4.2;;;;;;;5.15;92.31445;925.1437;;;;
2024/02/12 07:47:43;;;;;;;4.1;3.5;;;;;;;5.26;92.07617;925.1394;;;;
2024/02/12 07:50:07;;;;;;;3.8;3.1;;;;;;;5.34;91.66309;925.1763;;;;
2024/02/12 07:52:32;;;;;;;3.3;3;;;;;;;5.35;92.01855;925.2142;;;;
2024/02/12 07:54:57;;;;;;;3.2;2.6;;;;;;;5.37;92.28027;925.1347;;;;
2024/02/12 07:57:23;;;;;;;3.6;2.5;;;;;;;5.53;92.30371;925.2427;;;;
2024/02/12 07:59:47;;;;;;;2.6;2.2;;;;;;;5.64;91.09668;925.1774;;;;
2024/02/12 08:02:12;;;;;;;3.4;2.4;;;;;;;5.73;90.53809;925.2569;;;;
2024/02/12 08:04:38;;;;;;;2.7;1.9;;;;;;;5.85;90.39551;925.2327;;;;
2024/02/12 08:07:04;;;;;;;3.1;2.1;;;;;;;5.84;90.72168;925.2459;;;;
2024/02/12 08:09:28;;;;;;;7.4;4.3;;;;;;;5.91;91.26563;925.2625;;;;
2024/02/12 08:11:53;;;;;;;3.6;2.7;;;;;;;5.94;91.12891;925.2587;;;;
2024/02/12 08:14:18;;;;;;;2.2;2;;;;;;;5.97;91.5752;925.2692;;;;
2024/02/12 08:16:43;;;;;;;2.4;2.2;;;;;;;6.04;91.85938;925.2381;;;;
2024/02/12 08:19:08;;;;;;;4.1;2.6;;;;;;;6.2;90.57227;925.2706;;;;
2024/02/12 08:21:34;;;;;;;6.3;2.8;;;;;;;6.22;89.55859;925.2172;;;;
2024/02/12 08:23:59;;;;;;;4.2;2.6;;;;;;;6.2;89.55469;925.3195;;;;
2024/02/12 08:26:23;;;;;;;4.2;2.9;;;;;;;6.32;89.55664;925.2745;;;;
2024/02/12 08:28:48;;;;;;;5.3;4.2;;;;;;;6.4;89.6543;925.3666;;;;
2024/02/12 08:31:13;;;;;;;4.2;3.6;;;;;;;6.49;89.53809;925.3173;;;;
2024/02/12 08:33:39;;;;;;;3.2;2.8;;;;;;;6.52;89.02148;925.448;;;;
2024/02/12 08:36:04;;;;;;;4.1;2.6;;;;;;;6.52;88.81738;925.4684;;;;
2024/02/12 08:38:29;;;;;;;2.6;2.1;;;;;;;6.53;88.56152;925.5294;;;;
2024/02/12 08:40:55;;;;;;;2.9;2.2;;;;;;;6.55;88.30469;925.5066;;;;
2024/02/12 08:43:20;;;;;;;3.2;2.6;;;;;;;6.6;88.67578;925.5715;;;;
2024/02/12 08:45:45;;;;;;;2.1;1.5;;;;;;;6.57;87.18848;925.5691;;;;
2024/02/12 08:48:10;;;;;;;2.5;1.8;;;;;;;6.55;87.10547;925.6006;;;;
2024/02/12 08:50:36;;;;;;;2.1;1.5;;;;;;;6.53;86.91016;925.6014;;;;
2024/02/12 08:53:01;;;;;;;1.8;1.6;;;;;;;6.54;87.14941;925.6006;;;;
2024/02/12 08:55:26;;;;;;;2.2;1.7;;;;;;;6.56;87.02832;925.6213;;;;
2024/02/12 08:57:52;;;;;;;2.1;1.8;;;;;;;6.6;87.16016;925.6641;;;;
2024/02/12 09:00:18;;;;;;;1.8;1.5;;;;;;;6.67;87.12988;925.6639;;;;
2024/02/12 09:02:41;;;;;;;3.1;1.6;;;;;;;6.76;86.20801;925.7092;;;;
2024/02/12 09:05:10;;;;;;;3.5;2.2;;;;;;;6.83;85.91699;925.7327;;;;
2024/02/12 09:07:31;;;;;;;3.7;2;;;;;;;6.82;85.87012;925.7524;;;;
2024/02/12 09:09:57;;;;;;;2.8;2.3;;;;;;;6.87;86.25293;925.8356;;;;
2024/02/12 09:12:22;;;;;;;2.2;1.9;;;;;;;6.99;86.27832;925.8415;;;;
2024/02/12 09:14:47;;;;;;;2.1;1.9;;;;;;;7.02;86.39746;925.758;;;;
2024/02/12 09:17:18;;;;;;;3.8;1.8;;;;;;;7.07;85.44336;925.8;;;;
2024/02/12 09:19:41;;;;;;;1.8;1.6;;;;;;;7.04;84.98535;925.838;;;;
2024/02/12 09:22:09;;;;;;;1.7;1.5;;;;;;;7.08;85.18652;925.8769;;;;
2024/02/12 09:24:32;;;;;;;3.2;2.3;;;;;;;7.18;85.85059;925.8786;;;;
2024/02/12 09:26:57;;;;;;;2.8;2.1;;;;;;;7.22;86.1875;925.9186;;;;
2024/02/12 09:29:22;;;;;;;2.7;2;;;;;;;7.36;87.66602;925.9021;;;;
2024/02/12 09:31:47;;;;;;;3.3;2.4;;;;;;;7.37;85.76563;925.9386;;;;
2024/02/12 09:34:15;;;;;;;4.1;2.7;;;;;;;7.46;87.51758;925.912;;;;
2024/02/12 09:36:38;;;;;;;3.1;1.9;;;;;;;7.53;85.9209;925.9897;;;;
2024/02/12 09:39:04;;;;;;;2.6;2.4;;;;;;;7.64;86.22754;926.0344;;;;
2024/02/12 09:41:28;;;;;;;2.5;1.7;;;;;;;7.64;85.5127;926.0193;;;;
2024/02/12 09:43:53;;;;;;;1.5;1.4;;;;;;;7.64;85.5127;925.99;;;;
2024/02/12 09:46:18;;;;;;;1.4;1.3;;;;;;;7.63;85.27344;926.017;;;;
2024/02/12 09:48:43;;;;;;;1.3;1.2;;;;;;;7.62;85.10156;926.0201;;;;
2024/02/12 09:51:08;;;;;;;1.4;1.3;;;;;;;7.59;84.27637;926.0364;;;;
2024/02/12 09:53:34;;;;;;;1.6;1.1;;;;;;;7.57;84.61621;926.0499;;;;
2024/02/12 09:56:00;;;;;;;1.1;1;;;;;;;7.61;84.88184;926.1167;;;;
2024/02/12 09:58:23;;;;;;;2;1.2;;;;;;;7.6;84.26855;926.1323;;;;
2024/02/12 10:00:48;;;;;;;1.4;1.3;;;;;;;7.59;84.18555;926.1331;;;;
2024/02/12 10:03:13;;;;;;;1;1;;;;;;;7.6;85.00488;926.1664;;;;
2024/02/12 10:05:39;;;;;;;1.3;1.2;;;;;;;7.65;85.94629;926.1105;;;;
2024/02/12 10:08:04;;;;;;;1.7;1.3;;;;;;;7.74;85.75781;926.1359;;;;
2024/02/12 10:10:29;;;;;;;1.4;1.3;;;;;;;7.81;84.67188;926.1584;;;;
2024/02/12 10:12:54;;;;;;;1.7;1.6;;;;;;;7.86;85.56738;926.1797;;;;
2024/02/12 10:15:19;;;;;;;1.9;1.7;;;;;;;8.03;87.02051;926.2132;;;;
2024/02/12 10:17:46;;;;;;;1.6;1.3;;;;;;;8.34;84.96973;926.1841;;;;
2024/02/12 10:20:11;;;;;;;1.2;1;;;;;;;8.39;84.23047;926.1467;;;;
2024/02/12 10:22:35;;;;;;;1.2;1.1;;;;;;;8.37;84.97559;926.1792;;;;
2024/02/12 10:24:59;;;;;;;2.4;1.5;;;;;;;8.36;84.16895;926.1674;;;;
2024/02/12 10:27:25;;;;;;;2.2;1.4;;;;;;;8.32;84.6709;926.2028;;;;
2024/02/12 10:29:50;;;;;;;1.7;1.1;;;;;;;8.31;84.96289;926.1537;;;;
2024/02/12 10:32:16;;;;;;;2.6;1;;;;;;;8.28;84.07324;926.0808;;;;
2024/02/12 10:34:41;;;;;;;1.1;0.8;;;;;;;8.32;83.83008;926.079;;;;
2024/02/12 10:37:05;;;;;;;0.9;0.9;;;;;;;8.28;84.53711;926.0142;;;;
2024/02/12 10:39:34;;;;;;;2;0.9;;;;;;;8.33;83.86621;925.9585;;;;
2024/02/12 10:41:59;;;;;;;0.9;0.7;;;;;;;8.41;82.14355;926.0142;;;;
2024/02/12 10:44:24;;;;;;;0.4;0.4;;;;;;;8.77;79.75684;925.9922;;;;
2024/02/12 10:46:49;;;;;;;0.6;0.6;;;;;;;9.36;80.04785;925.9782;;;;
2024/02/12 10:49:40;;;;;;;0.5;0.5;;;;;;;10.25;78.36328;925.9771;;;;
2024/02/12 10:52:40;;;;;;;0.7;0.7;;;;;;;11;77.19824;925.9681;;;;
2024/02/12 10:55:33;;;;;;;0.6;0.5;;;;;;;11.18;71.18066;925.9583;;;;
2024/02/12 10:57:58;;;;;;;0.3;0.3;;;;;;;11.37;71.0293;925.8541;;;;
2024/02/12 11:00:25;;;;;;;0.2;0.2;;;;;;;11.23;66.37305;925.7938;;;;
2024/02/12 11:02:50;;;;;;;0.3;0.3;;;;;;;11.01;67.80273;925.9244;;;;
2024/02/12 11:05:14;;;;;;;0.3;0.3;;;;;;;10.75;69.15625;925.9565;;;;
2024/02/12 11:07:39;;;;;;;0.4;0.4;;;;;;;10.59;70.90039;926.0106;;;;
2024/02/12 11:10:03;;;;;;;0.8;0.6;;;;;;;10.4;70.54004;925.9517;;;;
2024/02/12 11:12:33;;;;;;;0.5;0.5;;;;;;;10.36;71.4209;925.9553;;;;
2024/02/12 11:14:54;;;;;;;0.4;0.4;;;;;;;10.2;72.42285;926.0636;;;;
2024/02/12 11:17:19;;;;;;;1;0.9;;;;;;;10.01;73.83887;926.162;;;;
2024/02/12 11:19:44;;;;;;;0.8;0.8;;;;;;;10.04;75.4873;926.1628;;;;
2024/02/12 11:22:10;;;;;;;0.7;0.6;;;;;;;9.69;76.9873;926.1713;;;;
2024/02/12 11:24:34;;;;;;;0.8;0.8;;;;;;;9.43;77.7373;926.1346;;;;
2024/02/12 11:26:59;;;;;;;0.5;0.5;;;;;;;8.99;80.62891;926.1757;;;;
2024/02/12 11:29:24;;;;;;;1.5;0.6;;;;;;;8.86;81.09082;926.0525;;;;
2024/02/12 11:31:50;;;;;;;0.6;0.6;;;;;;;8.8;82.30859;926.1555;;;;
2024/02/12 11:34:16;;;;;;;0.4;0.4;;;;;;;8.79;81.96777;926.0945;;;;
2024/02/12 11:36:40;;;;;;;0.6;0.6;;;;;;;8.98;82.68457;926.106;;;;
2024/02/12 11:39:04;;;;;;;0.6;0.6;;;;;;;8.98;83.17383;926.1424;;;;
2024/02/12 11:41:32;;;;;;;1.4;0.7;;;;;;;8.93;83.2998;926.0553;;;;
2024/02/12 11:43:55;;;;;;;1.4;0.6;;;;;;;8.95;82.64551;926.06;;;;
2024/02/12 11:46:21;;;;;;;0.6;0.5;;;;;;;8.9;83.72656;926.134;;;;
2024/02/12 11:48:45;;;;;;;0.7;0.7;;;;;;;8.85;82.87695;926.1556;;;;
2024/02/12 11:51:11;;;;;;;0.9;0.6;;;;;;;8.91;83.9541;926.1356;;;;
2024/02/12 11:53:37;;;;;;;0.4;0.4;;;;;;;8.93;83.95996;926.1808;;;;
2024/02/12 11:56:01;;;;;;;0.5;0.5;;;;;;;8.92;83.44824;926.1602;;;;
2024/02/12 11:58:27;;;;;;;0.6;0.3;;;;;;;9.02;84.77344;926.164;;;;
2024/02/12 12:00:52;;;;;;;0.7;0.4;;;;;;;8.96;83.04395;926.1473;;;;
2024/02/12 12:03:17;;;;;;;0.5;0.4;;;;;;;8.85;82.79688;926.0779;;;;
2024/02/12 12:05:43;;;;;;;0.4;0.4;;;;;;;8.84;82.34082;926.1724;;;;
2024/02/12 12:08:09;;;;;;;0.4;0.4;;;;;;;8.66;83.19238;926.2417;;;;
2024/02/12 12:10:34;;;;;;;0.4;0.4;;;;;;;;;;;;;
2024/02/12 12:12:58;;;;;;;0.5;0.5;;;;;;;;;;;;;
2024/02/12 12:15:23;;;;;;;0.8;0.6;;;;;;;;;;;;;
2024/02/12 12:17:48;;;;;;;1.3;1.2;;;;;;;;;;;;;
2024/02/12 12:20:15;;;;;;;1.2;0.8;;;;;;;;;;;;;
2024/02/12 12:22:39;;;;;;;0.9;0.6;;;;;;;;;;;;;
2024/02/12 12:25:04;;;;;;;1;0.8;;;;;;;;;;;;;
2024/02/12 12:27:28;;;;;;;0.6;0.5;;;;;;;;;;;;;
2024/02/12 12:29:54;;;;;;;0.6;0.4;;;;;;;;;;;;;
2024/02/12 12:32:19;;;;;;;1.2;0.6;;;;;;;;;;;;;
2024/02/12 12:34:44;;;;;;;1.2;0.6;;;;;;;;;;;;;
2024/02/12 12:37:11;;;;;;;0.4;0.4;;;;;;;;;;;;;
2024/02/12 12:39:34;;;;;;;0.6;0.6;;;;;;;;;;;;;
2024/02/12 12:41:59;;;;;;;0.6;0.6;;;;;;;;;;;;;
2024/02/12 12:44:26;;;;;;;0.6;0.6;;;;;;;;;;;;;
2024/02/12 12:46:50;;;;;;;0.9;0.9;;;;;;;;;;;;;
2024/02/12 12:49:17;;;;;;;0.5;0.5;;;;;;;;;;;;;
2024/02/12 12:51:40;;;;;;;0.4;0.4;;;;;;;;;;;;;
2024/02/12 12:54:05;;;;;;;0.4;0.3;;;;;;;;;;;;;
2024/02/12 12:56:30;;;;;;;0.3;0.3;;;;;;;;;;;;;
2024/02/12 12:58:56;;;;;;;0.3;0.3;;;;;;;;;;;;;
2024/02/12 13:01:22;;;;;;;0.3;0.3;;;;;;;;;;;;;
2024/02/12 13:03:46;;;;;;;0.2;0.2;;;;;;;;;;;;;
2024/02/12 13:06:15;;;;;;;0.2;0.2;;;;;;;;;;;;;
2024/02/12 13:08:36;;;;;;;0.2;0.2;;;;;;;;;;;;;
2024/02/12 13:11:02;;;;;;;0.6;0.3;;;;;;;;;;;;;
2024/02/12 13:13:27;;;;;;;0.3;0.3;;;;;;;;;;;;;
2024/02/12 13:15:52;;;;;;;0.3;0.3;;;;;;;;;;;;;
2024/02/12 13:18:19;;;;;;;0.4;0.4;;;;;;;;;;;;;
2024/02/12 13:20:42;;;;;;;0.4;0.4;;;;;;;;;;;;;
2024/02/12 13:23:07;;;;;;;0.5;0.5;;;;;;;;;;;;;
2024/02/12 13:25:32;;;;;;;0.6;0.4;;;;;;;;;;;;;
2024/02/12 13:27:59;;;;;;;0.5;0.4;;;;;;;;;;;;;
2024/02/12 13:30:22;;;;;;;0.6;0.5;;;;;;;;;;;;;
2024/02/12 13:32:47;;;;;;;0.4;0.4;;;;;;;;;;;;;
2024/02/12 13:35:14;;;;;;;0.6;0.3;;;;;;;;;;;;;
2024/02/12 13:37:38;;;;;;;0.3;0.3;;;;;;;;;;;;;
2024/02/12 13:40:05;;;;;;;0.3;0.3;;;;;;;;;;;;;
2024/02/12 13:42:27;;;;;;;0.4;0.4;;;;;;;;;;;;;
2024/02/12 13:44:52;;;;;;;0.5;0.4;;;;;;;;;;;;;
2024/02/12 13:47:48;;;;;;;0.6;0.6;;;;;;;9.1;78.64648;926.3772;;;;
2024/02/12 13:50:14;;;;;;;0.8;0.7;;;;;;;9.02;77.45801;926.3474;;;;
2024/02/12 13:52:39;;;;;;;0.7;0.7;;;;;;;9.02;77.52832;926.3688;;;;
2024/02/12 13:55:10;;;;;;;1.1;0.8;;;;;;;9;77;926.4107;;;;
2024/02/12 13:57:29;;;;;;;0.7;0.6;;;;;;;9;77.42188;926.4377;;;;
2024/02/12 13:59:55;;;;;;;1;0.7;;;;;;;9.05;77.31543;926.4363;;;;
2024/02/12 14:02:20;;;;;;;1.4;0.9;;;;;;;9.09;78.30176;926.4852;;;;
2024/02/12 14:04:44;;;;;;;1.4;0.9;;;;;;;9.09;79.23633;926.5209;;;;
2024/02/12 14:07:09;;;;;;;0.8;0.8;;;;;;;9.09;78.55371;926.413;;;;
2024/02/12 14:09:35;;;;;;;0.7;0.7;;;;;;;9.12;78.74121;926.5232;;;;
2024/02/12 14:12:00;;;;;;;0.9;0.7;;;;;;;9.11;78.46582;926.5463;;;;
2024/02/12 14:14:26;;;;;;;2.8;1;;;;;;;9.16;79.74902;926.5762;;;;
2024/02/12 14:16:50;;;;;;;2.2;1.2;;;;;;;9.17;79.73926;926.5945;;;;
2024/02/12 14:19:17;;;;;;;2.1;1;;;;;;;9.1;79.1582;926.6686;;;;
2024/02/12 14:21:42;;;;;;;1.2;1.1;;;;;;;9.13;79.4248;926.7065;;;;
2024/02/12 14:24:05;;;;;;;0.8;0.7;;;;;;;9.09;78.55176;926.6989;;;;
2024/02/12 14:26:31;;;;;;;1.4;0.6;;;;;;;9.06;78.71777;926.7561;;;;
2024/02/12 14:28:55;;;;;;;1.3;0.7;;;;;;;9;78.17285;926.7679;;;;
2024/02/12 14:31:23;;;;;;;0.9;0.8;;;;;;;8.91;78.66895;926.7413;;;;
2024/02/12 14:33:48;;;;;;;1;0.7;;;;;;;8.95;78.86914;926.8046;;;;
2024/02/12 14:36:11;;;;;;;0.8;0.7;;;;;;;8.9;80.00781;926.8152;;;;
2024/02/12 14:38:36;;;;;;;0.7;0.7;;;;;;;8.91;79.71387;926.8254;;;;
2024/02/12 14:41:02;;;;;;;1.6;0.6;;;;;;;8.92;79.6709;926.8539;;;;
2024/02/12 14:43:26;;;;;;;0.8;0.7;;;;;;;8.92;79.56934;926.8873;;;;
2024/02/12 14:45:51;;;;;;;2;1;;;;;;;9;80.24414;926.9196;;;;
2024/02/12 14:48:17;;;;;;;2;1.2;;;;;;;8.98;80.9668;926.9832;;;;
2024/02/12 14:50:41;;;;;;;1.8;1.4;;;;;;;8.85;80.43164;926.955;;;;
2024/02/12 14:53:06;;;;;;;2;1.4;;;;;;;8.86;80.37598;927.0002;;;;
2024/02/12 14:55:31;;;;;;;1.5;1.2;;;;;;;8.84;81.04199;927.0684;;;;
2024/02/12 14:57:57;;;;;;;4.5;2;;;;;;;8.94;80.32324;927.0619;;;;
2024/02/12 15:00:25;;;;;;;4.4;2.5;;;;;;;8.89;80.97266;927.0787;;;;
2024/02/12 15:02:49;;;;;;;2.3;1.5;;;;;;;8.86;80.99023;927.0248;;;;
2024/02/12 15:05:15;;;;;;;2;1.4;;;;;;;8.88;80.4707;927.0636;;;;
2024/02/12 15:07:37;;;;;;;1.6;1.2;;;;;;;8.82;81.03906;927.1011;;;;
2024/02/12 15:10:03;;;;;;;0.8;0.8;;;;;;;8.84;80.73633;927.1272;;;;
2024/02/12 15:12:30;;;;;;;1.2;0.8;;;;;;;8.8;82.21777;927.1627;;;;
2024/02/12 15:14:54;;;;;;;1.2;1.1;;;;;;;8.79;82.60449;927.2247;;;;
2024/02/12 15:17:17;;;;;;;2.1;1.1;;;;;;;8.81;82.24121;927.2937;;;;
2024/02/12 15:19:42;;;;;;;1.4;1.2;;;;;;;8.75;82.52637;927.3365;;;;
2024/02/12 15:22:08;;;;;;;1.1;1;;;;;;;8.73;83.27344;927.3628;;;;
2024/02/12 15:24:36;;;;;;;1.3;0.9;;;;;;;8.79;82.89844;927.3412;;;;
2024/02/12 15:26:58;;;;;;;0.6;0.5;;;;;;;8.67;82.45508;927.4098;;;;
2024/02/12 15:29:23;;;;;;;1.1;0.7;;;;;;;8.65;83.72559;927.4002;;;;
2024/02/12 15:31:48;;;;;;;1.5;0.8;;;;;;;8.66;83.70215;927.4804;;;;
2024/02/12 15:34:13;;;;;;;1.2;0.6;;;;;;;8.64;84.08691;927.4581;;;;
2024/02/12 15:36:38;;;;;;;1.4;1;;;;;;;8.64;83.5166;927.5106;;;;
2024/02/12 15:39:04;;;;;;;4.1;2.1;;;;;;;8.64;84.01758;927.5486;;;;
2024/02/12 15:41:28;;;;;;;3;2;;;;;;;8.65;84.22559;927.6272;;;;
2024/02/12 15:43:53;;;;;;;10.5;6.3;;;;;;;8.6;85.64648;927.6206;;;;
2024/02/12 15:46:20;;;;;;;8.2;4.7;;;;;;;8.59;86.32715;927.6396;;;;
2024/02/12 15:48:44;;;;;;;2.9;2.1;;;;;;;8.56;85.96973;927.6261;;;;
2024/02/12 15:51:09;;;;;;;2.9;2.3;;;;;;;8.57;86.2207;927.7364;;;;
2024/02/12 15:53:34;;;;;;;2.6;2;;;;;;;8.59;85.84961;927.7665;;;;
2024/02/12 15:55:59;;;;;;;2.2;1.7;;;;;;;8.56;86.41211;927.7816;;;;
2024/02/12 15:58:25;;;;;;;1.4;1.3;;;;;;;8.54;87.46582;927.8055;;;;
2024/02/12 16:00:49;;;;;;;0.9;0.9;;;;;;;8.56;87.46777;927.8563;;;;
2024/02/12 16:03:17;;;;;;;0.9;0.9;;;;;;;8.56;87.72949;927.9364;;;;
2024/02/12 16:05:40;;;;;;;2.3;1.1;;;;;;;8.55;87.3291;927.9649;;;;
2024/02/12 16:08:05;;;;;;;2.7;1.3;;;;;;;8.55;87.18164;927.9554;;;;
2024/02/12 16:10:31;;;;;;;2;1.3;;;;;;;8.48;86.75781;928.0291;;;;
2024/02/12 16:12:56;;;;;;;1.6;1.3;;;;;;;8.53;86.57617;927.9927;;;;
2024/02/12 16:15:21;;;;;;;1.3;1.2;;;;;;;8.5;87.01172;928.1236;;;;
2024/02/12 16:17:48;;;;;;;2.7;2.5;;;;;;;8.44;87.52539;928.1942;;;;
2024/02/12 16:20:12;;;;;;;4.1;3;;;;;;;8.39;88.19629;928.1986;;;;
2024/02/12 16:22:37;;;;;;;3.2;2.9;;;;;;;8.37;88.97461;928.2335;;;;